Terminal Aerodrome Forecast
Issued by NWS

Current Version | Previous Version | Text Only | Print | Product List | Glossary On
Versions: 1 2 3 4 5 6 7 8 9
679
FTUS42 KTAE 230524
TAFABY
TAF
KABY 230524Z 2306/2406 21003KT P6SM SCT010
     FM231800 23010G20KT 3SM TSRA BKN025CB
     FM232100 27010G20KT P6SM BKN030
     FM240000 27005KT P6SM BKN040=

USA.gov is the U.S. government's official web portal to all federal, state and local government web resources and services.